TAF LFMI
LFMI 090800Z 0909/1009 31010KT CAVOK TX10/0912Z TN02/1004Z TEMPO 0911/0915 32015G25KT BECMG 0922/0924 VRB03KT BECMG 1001/1002 BKN025 TEMPO 1002/1008 4000 RA BKN010=
METAR LFMI
LFMI 091100Z AUTO 32017KT CAVOK 10/01 Q1009 TEMPO 32015G25KT=
LFMI 091030Z AUTO 32019KT CAVOK 09/01 Q1009 TEMPO 32015G25KT=
LFMI 091000Z AUTO 33017KT CAVOK 08/00 Q1010 TEMPO 32015G25KT=
LFMI 090930Z AUTO 32016KT CAVOK 07/00 Q1010 TEMPO 32015G25KT=
LFMI 090900Z AUTO 32014KT CAVOK 06/01 Q1010 NOSIG=
WC LFMI
WS LFMI
WV LFMI